createdAt,value
2017-08-10T00:02:52.385Z,16.51
2017-08-10T00:03:31.830Z,16.42
2017-08-10T00:04:12.285Z,16.51
2017-08-10T00:04:52.838Z,16.51
2017-08-10T00:05:33.314Z,16.54
2017-08-10T00:06:13.875Z,16.5
2017-08-10T00:06:54.313Z,16.48
2017-08-10T00:09:05.501Z,16.51
2017-08-10T00:09:46.979Z,16.52
2017-08-10T00:10:27.237Z,16.52
2017-08-10T00:11:08.143Z,16.48
2017-08-10T00:11:48.781Z,16.52
2017-08-10T00:12:29.166Z,16.5
2017-08-10T00:13:10.606Z,16.52
2017-08-10T00:13:50.942Z,16.57
2017-08-10T00:14:31.439Z,16.45
2017-08-10T00:15:12.339Z,16.48
2017-08-10T00:15:52.797Z,16.48
2017-08-10T00:16:33.459Z,16.47
2017-08-10T00:17:14.099Z,16.45
2017-08-10T00:17:54.652Z,16.41
2017-08-10T00:18:35.274Z,16.45
2017-08-10T00:19:15.787Z,16.48
2017-08-10T00:19:56.260Z,16.48
2017-08-10T00:20:36.676Z,16.44
2017-08-10T00:21:17.110Z,16.47
2017-08-10T00:21:57.543Z,16.45
2017-08-10T00:22:38.007Z,16.48
2017-08-10T00:23:18.567Z,16.32
2017-08-10T00:23:58.989Z,16.29
2017-08-10T00:24:39.596Z,16.37
2017-08-10T00:25:19.966Z,16.47
2017-08-10T00:26:00.404Z,16.36
2017-08-10T00:26:40.785Z,16.32
2017-08-10T00:27:21.244Z,16.37
2017-08-10T00:28:01.639Z,16.3
2017-08-10T00:28:42.039Z,16.33
2017-08-10T00:29:22.491Z,16.34
2017-08-10T00:30:02.865Z,16.36
2017-08-10T00:30:43.241Z,16.36
2017-08-10T00:31:23.647Z,16.34
2017-08-10T00:32:04.307Z,16.4
2017-08-10T00:32:45.049Z,16.3
2017-08-10T00:33:25.336Z,16.36
2017-08-10T00:34:05.899Z,16.4
2017-08-10T00:34:46.234Z,16.37
2017-08-10T00:35:26.683Z,16.4
2017-08-10T00:36:07.162Z,16.47
2017-08-10T00:36:47.539Z,16.42
2017-08-10T00:37:27.916Z,16.45
2017-08-10T00:38:08.395Z,16.44
2017-08-10T00:38:48.773Z,16.29
2017-08-10T00:39:29.249Z,16.44
2017-08-10T00:40:10.141Z,16.47
2017-08-10T00:40:50.654Z,16.5
2017-08-10T00:41:30.964Z,16.54
2017-08-10T00:42:11.412Z,16.48
2017-08-10T00:42:51.815Z,16.54
2017-08-10T00:43:32.262Z,16.52
2017-08-10T00:44:12.693Z,16.54
2017-08-10T00:44:53.244Z,16.5
2017-08-10T00:45:33.838Z,16.45
2017-08-10T00:46:14.172Z,16.51
2017-08-10T00:46:54.615Z,16.51
2017-08-10T00:47:35.098Z,16.48
2017-08-10T00:48:15.394Z,16.5
2017-08-10T00:48:55.825Z,16.51
2017-08-10T00:49:36.227Z,16.59
2017-08-10T00:50:16.634Z,16.55
2017-08-10T00:50:57.081Z,16.54
2017-08-10T00:51:37.494Z,16.59
2017-08-10T00:52:17.905Z,16.54
2017-08-10T00:52:58.363Z,16.55
2017-08-10T00:53:38.725Z,16.52
2017-08-10T00:54:19.211Z,16.52
2017-08-10T00:54:59.604Z,16.55
2017-08-10T00:55:40.015Z,16.55
2017-08-10T00:56:20.437Z,16.52
2017-08-10T00:57:01.291Z,16.55
2017-08-10T00:57:42.330Z,16.55
2017-08-10T00:58:22.764Z,16.54
2017-08-10T00:59:03.338Z,16.65
2017-08-10T00:59:43.730Z,16.55
2017-08-10T01:00:24.543Z,16.62
2017-08-10T01:01:04.957Z,16.59
2017-08-10T01:01:45.439Z,16.47
2017-08-10T01:02:25.829Z,16.54
2017-08-10T01:03:06.266Z,16.51
2017-08-10T01:03:47.891Z,16.55
2017-08-10T01:04:28.806Z,16.54
2017-08-10T01:05:09.421Z,16.41
2017-08-10T01:05:49.853Z,16.5
2017-08-10T01:06:30.272Z,16.5
2017-08-10T01:07:11.024Z,16.55
2017-08-10T01:07:51.429Z,16.5
2017-08-10T01:08:34.821Z,16.5
2017-08-10T01:09:15.147Z,16.5
2017-08-10T01:09:55.567Z,16.52
2017-08-10T01:10:36.132Z,16.45
2017-08-10T01:11:16.453Z,16.48
2017-08-10T01:11:57.337Z,16.41
2017-08-10T01:12:37.508Z,16.5
2017-08-10T01:13:18.134Z,16.52
2017-08-10T01:13:59.167Z,16.48
2017-08-10T01:14:39.316Z,16.5
2017-08-10T01:15:21.369Z,16.5
2017-08-10T01:16:01.972Z,16.5
2017-08-10T01:16:44.129Z,16.47
2017-08-10T01:17:25.102Z,16.52
2017-08-10T01:18:06.335Z,16.51
2017-08-10T01:18:47.075Z,16.51
2017-08-10T01:21:50.796Z,16.45
2017-08-10T01:22:46.334Z,16.55
2017-08-10T01:23:30.290Z,16.45
2017-08-10T01:24:10.729Z,16.48
2017-08-10T01:24:51.146Z,16.45
2017-08-10T01:25:31.592Z,16.34
2017-08-10T01:26:11.973Z,16.36
2017-08-10T01:26:52.376Z,16.36
2017-08-10T01:27:32.794Z,16.47
2017-08-10T01:28:13.154Z,16.37
2017-08-10T01:28:53.570Z,16.4
2017-08-10T01:29:34.056Z,16.4
2017-08-10T01:30:14.458Z,16.42
2017-08-10T01:30:54.899Z,16.36
2017-08-10T01:31:35.273Z,16.29
2017-08-10T01:32:15.657Z,16.4
2017-08-10T01:32:56.081Z,16.42
2017-08-10T01:33:36.457Z,16.44
2017-08-10T01:34:16.868Z,16.47
2017-08-10T01:34:57.300Z,16.42
2017-08-10T01:35:37.685Z,16.47
2017-08-10T01:36:18.099Z,16.37
2017-08-10T01:36:58.480Z,16.37
2017-08-10T01:37:38.890Z,16.29
2017-08-10T01:38:19.333Z,16.41
2017-08-10T01:38:59.729Z,16.41
2017-08-10T01:39:40.144Z,16.48
2017-08-10T01:40:20.512Z,16.5
2017-08-10T01:41:00.959Z,16.54
2017-08-10T01:41:41.286Z,16.5
2017-08-10T01:42:21.706Z,16.5
2017-08-10T01:43:02.074Z,16.54
2017-08-10T01:43:42.526Z,16.55
2017-08-10T01:44:22.928Z,16.6
2017-08-10T01:45:03.321Z,16.5
2017-08-10T01:45:43.735Z,16.55
2017-08-10T01:46:24.116Z,16.51
2017-08-10T01:47:04.535Z,16.48
2017-08-10T01:47:44.890Z,16.51
2017-08-10T01:48:25.332Z,16.47
2017-08-10T01:49:05.656Z,16.51
2017-08-10T01:49:46.096Z,16.47
2017-08-10T01:50:26.496Z,16.47
2017-08-10T01:51:06.944Z,16.45
2017-08-10T01:51:47.328Z,16.42
2017-08-10T01:52:27.690Z,16.45
2017-08-10T01:53:08.113Z,16.44
2017-08-10T01:53:48.512Z,16.47
2017-08-10T01:54:28.876Z,16.34
2017-08-10T01:55:09.302Z,16.4
2017-08-10T01:55:49.719Z,16.34
2017-08-10T01:56:30.089Z,16.36
2017-08-10T01:57:10.468Z,16.34
2017-08-10T01:57:50.895Z,16.41
2017-08-10T01:58:31.248Z,16.36
2017-08-10T01:59:11.655Z,16.3
2017-08-10T01:59:52.041Z,16.3
2017-08-10T02:00:32.461Z,16.41
2017-08-10T02:01:12.844Z,16.3
2017-08-10T02:01:53.212Z,16.42
2017-08-10T02:02:33.659Z,16.29
2017-08-10T02:03:14.046Z,16.36
2017-08-10T02:03:54.461Z,16.3
2017-08-10T02:04:34.833Z,16.27
2017-08-10T02:05:15.301Z,16.27
2017-08-10T02:05:55.711Z,16.3
2017-08-10T02:06:36.074Z,16.26
2017-08-10T02:07:16.484Z,16.25
2017-08-10T02:07:56.913Z,16.18
2017-08-10T02:08:37.345Z,16.17
2017-08-10T02:09:17.709Z,16.22
2017-08-10T02:09:58.076Z,16.17
2017-08-10T02:10:38.502Z,16.14
2017-08-10T02:11:18.941Z,16.1
2017-08-10T02:11:59.380Z,16.17
2017-08-10T02:12:39.739Z,16.11
2017-08-10T02:13:20.171Z,16.07
2017-08-10T02:14:00.561Z,16.04
2017-08-10T02:14:40.971Z,16.03
2017-08-10T02:15:21.353Z,16.03
2017-08-10T02:16:01.756Z,15.89
2017-08-10T02:16:42.160Z,15.99
2017-08-10T02:17:22.570Z,16.08
2017-08-10T02:18:02.960Z,16.03
2017-08-10T02:18:43.390Z,15.95
2017-08-10T02:19:23.772Z,15.99
2017-08-10T02:20:04.166Z,16.04
2017-08-10T02:20:44.602Z,16.04
2017-08-10T02:21:24.968Z,16.1
2017-08-10T02:22:05.400Z,16.03
2017-08-10T02:22:45.772Z,16.04
2017-08-10T02:23:26.187Z,16.07
2017-08-10T02:24:06.568Z,16.07
2017-08-10T02:24:46.935Z,16.08
2017-08-10T02:25:27.328Z,16.08
2017-08-10T02:26:07.707Z,16.22
2017-08-10T02:26:48.108Z,16.18
2017-08-10T02:27:28.571Z,16.25
2017-08-10T02:28:08.893Z,16.26
2017-08-10T02:28:49.335Z,16.29
2017-08-10T02:29:29.718Z,16.26
2017-08-10T02:30:10.120Z,16.4
2017-08-10T02:30:50.505Z,16.32
2017-08-10T02:31:30.878Z,16.29
2017-08-10T02:32:11.337Z,16.34
2017-08-10T02:32:51.741Z,16.36
2017-08-10T02:33:32.120Z,16.29
2017-08-10T02:34:12.542Z,16.4
2017-08-10T02:34:53.545Z,16.37
2017-08-10T02:35:34.067Z,16.34
2017-08-10T02:36:14.496Z,16.4
2017-08-10T02:36:54.850Z,16.42
2017-08-10T02:37:35.340Z,16.4
2017-08-10T02:38:15.713Z,16.48
2017-08-10T02:38:56.209Z,16.47
2017-08-10T02:39:36.583Z,16.45
2017-08-10T02:40:17.024Z,16.45
2017-08-10T02:40:57.441Z,16.44
2017-08-10T02:41:37.875Z,16.44
2017-08-10T02:42:18.248Z,16.47
2017-08-10T02:42:58.697Z,16.47
2017-08-10T02:43:39.040Z,16.44
2017-08-10T02:44:19.396Z,16.42
2017-08-10T02:44:59.784Z,16.42
2017-08-10T02:45:40.214Z,16.45
2017-08-10T02:46:20.646Z,16.44
2017-08-10T02:47:01.075Z,16.42
2017-08-10T02:47:41.430Z,16.48
2017-08-10T02:48:21.879Z,16.4
2017-08-10T02:49:02.239Z,16.42
2017-08-10T02:49:42.634Z,16.29
2017-08-10T02:50:23.018Z,16.32
2017-08-10T02:51:03.395Z,16.41
2017-08-10T02:51:43.820Z,16.33
2017-08-10T02:52:24.276Z,16.37
2017-08-10T02:53:04.688Z,16.37
2017-08-10T02:53:45.062Z,16.32
2017-08-10T02:54:25.495Z,16.27
2017-08-10T02:55:05.849Z,16.32
2017-08-10T02:55:46.280Z,16.3
2017-08-10T02:56:26.671Z,16.29
2017-08-10T02:57:07.093Z,16.27
2017-08-10T02:57:47.516Z,16.34
2017-08-10T02:58:27.944Z,16.33
2017-08-10T02:59:08.332Z,16.34
2017-08-10T02:59:48.702Z,16.32
2017-08-10T03:00:29.151Z,16.36
2017-08-10T03:01:09.560Z,16.37
2017-08-10T03:01:50.012Z,16.42
2017-08-10T03:02:30.381Z,16.42
2017-08-10T03:03:10.827Z,16.45
2017-08-10T03:03:51.243Z,16.41
2017-08-10T03:04:31.634Z,16.5
2017-08-10T03:05:12.040Z,16.41
2017-08-10T03:05:52.439Z,16.42
2017-08-10T03:06:32.832Z,16.37
2017-08-10T03:07:13.273Z,16.36
2017-08-10T03:07:53.682Z,16.44
2017-08-10T03:08:34.095Z,16.34
2017-08-10T03:09:14.472Z,16.32
2017-08-10T03:09:54.891Z,16.27
2017-08-10T03:10:35.246Z,16.26
2017-08-10T03:11:15.654Z,16.29
2017-08-10T03:11:56.099Z,16.17
2017-08-10T03:12:36.492Z,16.22
2017-08-10T03:13:16.872Z,16.14
2017-08-10T03:13:57.263Z,16.1
2017-08-10T03:14:37.688Z,16.08
2017-08-10T03:15:18.099Z,16.07
2017-08-10T03:15:58.500Z,16.01
2017-08-10T03:16:38.943Z,16.08
2017-08-10T03:17:19.487Z,16.03
2017-08-10T03:17:59.896Z,15.95
2017-08-10T03:18:40.294Z,15.93
2017-08-10T03:19:20.701Z,15.96
2017-08-10T03:20:01.143Z,15.92
2017-08-10T03:20:41.522Z,15.92
2017-08-10T03:21:21.915Z,15.91
2017-08-10T03:22:02.346Z,15.89
2017-08-10T03:22:42.691Z,15.86
2017-08-10T03:23:23.123Z,15.81
2017-08-10T03:24:03.496Z,15.81
2017-08-10T03:24:43.912Z,15.84
2017-08-10T03:25:24.310Z,15.86
2017-08-10T03:26:04.716Z,15.8
2017-08-10T03:26:45.141Z,15.85
2017-08-10T03:27:25.570Z,15.73
2017-08-10T03:28:06.002Z,15.71
2017-08-10T03:28:46.379Z,15.71
2017-08-10T03:29:26.746Z,15.74
2017-08-10T03:30:07.154Z,15.67
2017-08-10T03:30:47.568Z,15.6
2017-08-10T03:31:27.970Z,15.58
2017-08-10T03:32:08.424Z,15.62
2017-08-10T03:32:48.791Z,15.55
2017-08-10T03:33:29.241Z,15.62
2017-08-10T03:34:09.587Z,15.59
2017-08-10T03:34:50.003Z,15.59
2017-08-10T03:35:30.404Z,15.6
2017-08-10T03:36:10.776Z,15.64
2017-08-10T03:36:51.188Z,15.66
2017-08-10T03:37:31.534Z,15.66
2017-08-10T03:38:11.970Z,15.7
2017-08-10T03:38:52.356Z,15.71
2017-08-10T03:39:32.789Z,15.76
2017-08-10T03:40:13.237Z,15.77
2017-08-10T03:40:53.659Z,15.8
2017-08-10T03:41:34.120Z,15.77
2017-08-10T03:42:14.481Z,15.77
2017-08-10T03:42:54.835Z,15.73
2017-08-10T03:43:35.274Z,15.84
2017-08-10T03:44:15.696Z,15.85
2017-08-10T03:44:56.063Z,15.84
2017-08-10T03:45:36.475Z,15.89
2017-08-10T03:46:16.834Z,15.71
2017-08-10T03:46:57.202Z,15.71
2017-08-10T03:47:37.644Z,15.76
2017-08-10T03:48:18.080Z,15.74
2017-08-10T03:48:58.427Z,15.7
2017-08-10T03:49:38.871Z,15.62
2017-08-10T03:50:19.224Z,15.62
2017-08-10T03:50:59.648Z,15.58
2017-08-10T03:51:40.020Z,15.58
2017-08-10T03:52:20.381Z,15.6
2017-08-10T03:53:00.831Z,15.53
2017-08-10T03:53:41.223Z,15.48
2017-08-10T03:54:21.630Z,15.67
2017-08-10T03:55:01.992Z,15.62
2017-08-10T03:55:42.416Z,15.59
2017-08-10T03:56:22.781Z,15.59
2017-08-10T03:57:03.202Z,15.62
2017-08-10T03:57:43.637Z,15.6
2017-08-10T03:58:24.029Z,15.62
2017-08-10T03:59:04.434Z,15.67
2017-08-10T03:59:44.798Z,15.6
2017-08-10T04:00:25.219Z,15.62
2017-08-10T04:01:05.640Z,15.64
2017-08-10T04:01:46.010Z,15.7
2017-08-10T04:02:26.410Z,15.67
2017-08-10T04:03:06.813Z,15.56
2017-08-10T04:03:47.243Z,15.62
2017-08-10T04:04:27.653Z,15.62
2017-08-10T04:05:08.084Z,15.55
2017-08-10T04:05:48.553Z,15.53
2017-08-10T04:06:28.947Z,15.52
2017-08-10T04:07:09.363Z,15.52
2017-08-10T04:07:49.739Z,15.52
2017-08-10T04:08:30.101Z,15.41
2017-08-10T04:09:10.542Z,15.44
2017-08-10T04:09:50.959Z,15.48
2017-08-10T04:10:31.379Z,15.41
2017-08-10T04:11:11.803Z,15.33
2017-08-10T04:11:52.297Z,15.37
2017-08-10T04:12:32.677Z,15.34
2017-08-10T04:13:13.204Z,15.3
2017-08-10T04:13:53.671Z,15.28
2017-08-10T04:14:34.047Z,15.33
2017-08-10T04:15:14.480Z,15.3
2017-08-10T04:15:54.833Z,15.18
2017-08-10T04:16:35.270Z,15.22
2017-08-10T04:17:15.660Z,15.2
2017-08-10T04:17:56.103Z,15.19
2017-08-10T04:18:36.492Z,15.23
2017-08-10T04:19:16.905Z,15.25
2017-08-10T04:19:57.335Z,15.33
2017-08-10T04:20:37.796Z,15.33
2017-08-10T04:21:18.183Z,15.34
2017-08-10T04:21:58.577Z,15.33
2017-08-10T04:22:39.001Z,15.33
2017-08-10T04:23:19.416Z,15.31
2017-08-10T04:23:59.832Z,15.41
2017-08-10T04:24:40.231Z,15.34
2017-08-10T04:25:20.615Z,15.34
2017-08-10T04:26:01.015Z,15.41
2017-08-10T04:26:41.397Z,15.44
2017-08-10T04:27:21.843Z,15.37
2017-08-10T04:28:02.216Z,15.4
2017-08-10T04:28:42.626Z,15.43
2017-08-10T04:29:23.009Z,15.37
2017-08-10T04:30:03.413Z,15.41
2017-08-10T04:30:43.880Z,15.34
2017-08-10T04:31:24.241Z,15.41
2017-08-10T04:32:04.688Z,15.4
2017-08-10T04:32:45.077Z,15.37
2017-08-10T04:33:25.456Z,15.35
2017-08-10T04:34:05.851Z,15.4
2017-08-10T04:34:46.267Z,15.37
2017-08-10T04:35:26.638Z,15.28
2017-08-10T04:36:07.055Z,15.38
2017-08-10T04:36:47.465Z,15.4
2017-08-10T04:37:27.879Z,15.31
2017-08-10T04:38:08.279Z,15.41
2017-08-10T04:38:48.726Z,15.44
2017-08-10T04:39:29.160Z,15.52
2017-08-10T04:40:09.516Z,15.52
2017-08-10T04:40:49.923Z,15.52
2017-08-10T04:41:30.328Z,15.53
2017-08-10T04:42:10.772Z,15.55
2017-08-10T04:42:51.199Z,15.52
2017-08-10T04:43:31.572Z,15.56
2017-08-10T04:44:11.988Z,15.52
2017-08-10T04:44:52.433Z,15.4
2017-08-10T04:45:32.788Z,15.52
2017-08-10T04:46:13.229Z,15.52
2017-08-10T04:46:53.616Z,15.49
2017-08-10T04:47:34.068Z,15.52
2017-08-10T04:48:14.494Z,15.59
2017-08-10T04:48:54.845Z,15.6
2017-08-10T04:49:35.295Z,15.62
2017-08-10T04:50:15.710Z,15.62
2017-08-10T04:50:56.110Z,15.66
2017-08-10T04:51:36.502Z,15.68
2017-08-10T04:52:16.917Z,15.7
2017-08-10T04:52:57.426Z,15.71
2017-08-10T04:53:37.778Z,15.74
2017-08-10T04:54:18.239Z,15.73
2017-08-10T04:54:58.609Z,15.81
2017-08-10T04:55:39.037Z,15.85
2017-08-10T04:56:19.474Z,15.81
2017-08-10T04:56:59.887Z,15.93
2017-08-10T04:57:40.387Z,15.91
2017-08-10T04:58:20.748Z,16.06
2017-08-10T04:59:01.171Z,16.01
2017-08-10T04:59:41.580Z,16.06
2017-08-10T05:00:21.959Z,16.08
2017-08-10T05:01:02.336Z,16.04
2017-08-10T05:01:42.783Z,16.13
2017-08-10T05:02:23.208Z,16.07
2017-08-10T05:03:03.575Z,16.08
2017-08-10T05:03:44.010Z,16.11
2017-08-10T05:04:24.428Z,16.1
2017-08-10T05:05:04.823Z,16.07
2017-08-10T05:05:45.245Z,16.08
2017-08-10T05:06:25.605Z,16.13
2017-08-10T05:07:06.156Z,16.13
2017-08-10T05:07:46.550Z,16.07
2017-08-10T05:08:26.943Z,16.07
2017-08-10T05:09:07.367Z,15.99
2017-08-10T05:09:47.795Z,16.03
2017-08-10T05:10:28.234Z,15.92
2017-08-10T05:12:26.217Z,15.89
2017-08-10T05:13:06.512Z,15.99
2017-08-10T05:13:46.917Z,16.01
2017-08-10T05:14:27.305Z,15.98
2017-08-10T05:15:07.763Z,15.99
2017-08-10T05:15:48.154Z,16.06
2017-08-10T05:16:28.533Z,16.11
2017-08-10T05:17:09.546Z,16.23
2017-08-10T05:17:49.712Z,16.16
2017-08-10T05:18:30.102Z,16.25
2017-08-10T05:19:10.545Z,16.3
2017-08-10T05:19:50.934Z,16.26
2017-08-10T05:20:31.285Z,16.26
2017-08-10T05:21:11.728Z,16.34
2017-08-10T05:21:52.136Z,16.4
2017-08-10T05:22:32.631Z,16.37
2017-08-10T05:23:12.979Z,16.33
2017-08-10T05:23:53.449Z,16.4
2017-08-10T05:24:33.912Z,16.41
2017-08-10T05:25:14.339Z,16.3
2017-08-10T05:25:54.761Z,16.44
2017-08-10T05:26:35.157Z,16.42
2017-08-10T05:27:15.603Z,16.32
2017-08-10T05:27:55.987Z,16.36
2017-08-10T05:28:36.381Z,16.3
2017-08-10T05:29:16.932Z,16.29
2017-08-10T05:29:57.295Z,16.4
2017-08-10T05:30:37.745Z,16.44
2017-08-10T05:31:18.161Z,16.29
2017-08-10T05:31:58.612Z,16.34
2017-08-10T05:32:38.967Z,16.34
2017-08-10T05:33:19.394Z,16.33
2017-08-10T05:33:59.751Z,16.36
2017-08-10T05:34:40.135Z,16.34
2017-08-10T05:35:20.676Z,16.3
2017-08-10T05:36:01.078Z,16.4
2017-08-10T05:36:41.478Z,16.3
2017-08-10T05:37:21.956Z,16.36
2017-08-10T05:38:02.307Z,16.37
2017-08-10T05:38:42.685Z,16.36
2017-08-10T05:39:23.184Z,16.29
2017-08-10T05:40:03.652Z,16.29
2017-08-10T05:40:44.134Z,16.29
2017-08-10T05:41:24.903Z,16.26
2017-08-10T05:42:05.244Z,16.34
2017-08-10T05:42:45.651Z,16.36
2017-08-10T05:43:26.064Z,16.3
2017-08-10T05:44:06.459Z,16.3
2017-08-10T05:44:46.866Z,16.26
2017-08-10T05:45:27.257Z,16.23
2017-08-10T05:46:07.628Z,16.14
2017-08-10T05:46:48.054Z,16.03
2017-08-10T05:47:28.428Z,16.07
2017-08-10T05:48:08.827Z,16.08
2017-08-10T05:48:49.205Z,16.01
2017-08-10T05:49:29.594Z,16.06
2017-08-10T05:50:09.994Z,15.93
2017-08-10T05:50:50.420Z,15.88
2017-08-10T05:51:30.787Z,15.88
2017-08-10T05:52:11.206Z,15.81
2017-08-10T05:52:51.562Z,15.77
2017-08-10T05:53:32.063Z,15.78
2017-08-10T05:54:12.420Z,15.76
2017-08-10T05:54:52.836Z,15.78
2017-08-10T05:55:33.272Z,15.8
2017-08-10T05:56:13.654Z,15.81
2017-08-10T05:56:54.047Z,15.85
2017-08-10T05:57:34.506Z,15.85
2017-08-10T05:58:14.880Z,15.84
2017-08-10T05:58:55.278Z,15.92
2017-08-10T05:59:35.645Z,15.98
2017-08-10T06:00:16.085Z,15.92
2017-08-10T06:00:56.503Z,16.01
2017-08-10T06:01:36.917Z,16.03
2017-08-10T06:02:17.372Z,15.96
2017-08-10T06:02:57.730Z,16.01
2017-08-10T06:03:38.163Z,16.08
2017-08-10T06:04:18.596Z,16.06
2017-08-10T06:05:14.267Z,15.99
2017-08-10T06:05:54.769Z,16.04
2017-08-10T06:06:35.182Z,16.04
2017-08-10T06:07:15.559Z,16.07
2017-08-10T06:07:56.024Z,16.1
2017-08-10T06:08:36.454Z,16.18
2017-08-10T06:09:16.868Z,16.23
2017-08-10T06:09:57.228Z,16.32
2017-08-10T06:10:37.661Z,16.3
2017-08-10T06:11:18.003Z,16.36
2017-08-10T06:11:58.413Z,16.34
2017-08-10T06:12:38.852Z,16.44
2017-08-10T06:13:19.280Z,16.47
2017-08-10T06:13:59.758Z,16.45
2017-08-10T06:14:40.176Z,16.5
2017-08-10T06:15:20.582Z,16.5
2017-08-10T06:16:00.973Z,16.48
2017-08-10T06:16:41.412Z,16.5
2017-08-10T06:17:21.785Z,16.51
2017-08-10T06:18:02.215Z,16.54
2017-08-10T06:18:42.656Z,16.59
2017-08-10T06:19:23.077Z,16.51
2017-08-10T06:20:03.465Z,16.66
2017-08-10T06:20:43.828Z,16.62
2017-08-10T06:21:24.336Z,16.57
2017-08-10T06:22:04.760Z,16.59
2017-08-10T06:22:45.218Z,16.62
2017-08-10T06:23:25.689Z,16.65
2017-08-10T06:24:06.172Z,16.57
2017-08-10T06:24:46.508Z,16.55
2017-08-10T06:25:26.932Z,16.6
2017-08-10T06:26:07.368Z,16.67
2017-08-10T06:26:47.702Z,16.75
2017-08-10T06:27:28.372Z,16.75
2017-08-10T06:28:08.759Z,16.84
2017-08-10T06:28:49.252Z,16.8
2017-08-10T06:29:29.727Z,16.81
2017-08-10T06:30:10.488Z,16.81
2017-08-10T06:30:50.801Z,16.85
2017-08-10T06:31:31.292Z,16.8
2017-08-10T06:32:11.683Z,16.81
2017-08-10T06:32:52.072Z,16.77
2017-08-10T06:33:32.525Z,16.77
2017-08-10T06:34:12.932Z,16.8
2017-08-10T06:34:53.387Z,16.87
2017-08-10T06:35:33.936Z,16.81
2017-08-10T06:36:14.511Z,16.73
2017-08-10T06:36:54.858Z,16.75
2017-08-10T06:37:35.284Z,16.73
2017-08-10T06:38:15.657Z,16.7
2017-08-10T06:38:56.041Z,16.67
2017-08-10T06:39:36.509Z,16.63
2017-08-10T06:40:16.851Z,16.55
2017-08-10T06:40:57.249Z,16.59
2017-08-10T06:41:37.779Z,16.57
2017-08-10T06:42:18.259Z,16.59
2017-08-10T06:42:58.668Z,16.62
2017-08-10T06:43:39.038Z,16.6
2017-08-10T06:44:19.602Z,16.57
2017-08-10T06:44:59.962Z,16.65
2017-08-10T06:45:40.549Z,16.63
2017-08-10T06:46:20.910Z,16.55
2017-08-10T06:47:01.401Z,16.55
2017-08-10T06:47:41.832Z,16.52
2017-08-10T06:48:22.208Z,16.6
2017-08-10T06:49:02.732Z,16.51
2017-08-10T06:49:43.260Z,16.59
2017-08-10T06:50:24.726Z,16.62
2017-08-10T06:51:05.550Z,16.73
2017-08-10T06:51:45.972Z,16.73
2017-08-10T06:52:26.433Z,16.7
2017-08-10T06:53:11.672Z,16.84
2017-08-10T06:53:52.079Z,16.84
2017-08-10T06:54:32.501Z,16.8
2017-08-10T06:55:12.992Z,16.77
2017-08-10T06:55:53.429Z,16.77
2017-08-10T06:56:33.784Z,16.69
2017-08-10T06:57:14.316Z,16.67
2017-08-10T06:57:54.729Z,16.69
2017-08-10T06:58:35.142Z,16.73
2017-08-10T06:59:15.564Z,16.78
2017-08-10T06:59:55.941Z,16.73
2017-08-10T07:00:36.344Z,16.7
2017-08-10T07:01:18.173Z,16.77
2017-08-10T07:01:58.535Z,16.67
2017-08-10T07:04:14.089Z,16.73
2017-08-10T07:09:58.184Z,16.63
2017-08-10T07:10:44.636Z,16.54
2017-08-10T07:11:21.812Z,16.6
2017-08-10T07:12:02.263Z,16.7
2017-08-10T07:12:42.707Z,16.75
2017-08-10T07:13:23.282Z,16.8
2017-08-10T07:14:03.659Z,16.82
2017-08-10T07:14:44.168Z,16.84
2017-08-10T07:15:24.687Z,16.8
2017-08-10T07:16:05.520Z,16.77
2017-08-10T07:16:45.819Z,16.73
2017-08-10T07:17:26.362Z,16.75
2017-08-10T07:18:06.736Z,16.82
2017-08-10T07:18:47.149Z,16.78
2017-08-10T07:19:27.696Z,16.96
2017-08-10T07:20:08.106Z,16.95
2017-08-10T07:20:48.559Z,16.92
2017-08-10T07:21:29.141Z,16.82
2017-08-10T07:22:09.585Z,16.91
2017-08-10T07:22:50.014Z,16.85
2017-08-10T07:23:30.441Z,16.82
2017-08-10T07:24:10.940Z,16.81
2017-08-10T07:24:51.364Z,16.77
2017-08-10T07:25:31.818Z,16.8
2017-08-10T07:26:12.211Z,16.72
2017-08-10T07:26:52.830Z,16.77
2017-08-10T07:27:33.392Z,16.7
2017-08-10T07:28:13.849Z,16.75
2017-08-10T07:28:54.938Z,16.81
2017-08-10T07:29:35.369Z,16.78
2017-08-10T07:30:15.999Z,16.78
2017-08-10T07:30:56.428Z,16.81
2017-08-10T07:31:37.212Z,16.81
2017-08-10T07:32:17.935Z,16.98
2017-08-10T07:32:58.272Z,16.95
2017-08-10T07:33:38.821Z,16.98
2017-08-10T07:34:19.763Z,16.98
2017-08-10T07:35:00.649Z,17.12
2017-08-10T07:35:40.813Z,17.12
2017-08-10T07:36:21.493Z,17.14
2017-08-10T07:37:02.258Z,17.02
2017-08-10T07:37:42.605Z,17.15
2017-08-10T07:38:23.146Z,17.12
2017-08-10T07:39:03.610Z,16.96
2017-08-10T07:39:43.973Z,17.03
2017-08-10T07:40:24.635Z,16.95
2017-08-10T07:41:05.163Z,16.9
2017-08-10T07:41:48.173Z,16.96
2017-08-10T07:42:28.629Z,16.87
2017-08-10T07:43:09.425Z,16.81
2017-08-10T07:43:49.846Z,16.84
2017-08-10T07:44:30.229Z,16.8
2017-08-10T07:45:10.793Z,16.88
2017-08-10T07:45:51.422Z,16.91
2017-08-10T07:46:31.866Z,16.95
2017-08-10T07:47:12.296Z,17
2017-08-10T07:47:52.868Z,17.14
2017-08-10T07:48:33.402Z,17.14
2017-08-10T07:49:13.774Z,17.15
2017-08-10T07:49:54.391Z,17.3
2017-08-10T07:50:34.638Z,17.28
2017-08-10T07:51:15.134Z,17.36
2017-08-10T07:51:55.580Z,17.43
2017-08-10T07:52:36.170Z,17.39
2017-08-10T07:53:16.680Z,17.32
2017-08-10T07:53:57.085Z,17.27
2017-08-10T07:54:37.514Z,17.39
2017-08-10T07:55:17.973Z,17.39
2017-08-10T07:55:58.558Z,17.25
2017-08-10T07:56:39.536Z,17.28
2017-08-10T07:57:19.985Z,17.21
2017-08-10T07:58:00.590Z,17.15
2017-08-10T07:58:41.205Z,17.25
2017-08-10T07:59:21.898Z,17.15
2017-08-10T08:00:02.436Z,17.18
2017-08-10T08:00:42.873Z,17.2
2017-08-10T08:01:23.400Z,17.17
2017-08-10T08:02:03.774Z,17.32
2017-08-10T08:02:44.145Z,17.24
2017-08-10T08:03:24.870Z,17.25
2017-08-10T08:04:05.374Z,17.35
2017-08-10T08:04:45.903Z,17.33
2017-08-10T08:05:26.543Z,17.36
2017-08-10T08:06:07.004Z,17.36
2017-08-10T08:06:47.563Z,17.33
2017-08-10T08:07:28.006Z,17.25
2017-08-10T08:08:08.445Z,17.28
2017-08-10T08:08:48.973Z,17.28
2017-08-10T08:09:29.349Z,17.15
2017-08-10T08:10:09.683Z,17.21
2017-08-10T08:10:50.485Z,17.22
2017-08-10T08:11:30.804Z,17.22
2017-08-10T08:12:11.400Z,17.12
2017-08-10T08:12:51.907Z,17.22
2017-08-10T08:13:32.520Z,17.18
2017-08-10T08:14:13.006Z,17.14
2017-08-10T08:14:53.474Z,17.17
2017-08-10T08:15:33.900Z,17.14
2017-08-10T08:16:14.482Z,17.2
2017-08-10T08:16:54.885Z,17.14
2017-08-10T08:17:35.458Z,17.2
2017-08-10T08:18:15.864Z,17.15
2017-08-10T08:18:57.006Z,17.28
2017-08-10T08:19:37.262Z,17.27
2017-08-10T08:20:17.651Z,17.27
2017-08-10T08:20:58.226Z,17.25
2017-08-10T08:21:39.252Z,17.27
2017-08-10T08:22:19.787Z,17.32
2017-08-10T08:23:00.291Z,17.25
2017-08-10T08:23:41.736Z,17.21
2017-08-10T08:24:22.305Z,17.27
2017-08-10T08:25:03.397Z,17.12
2017-08-10T08:25:43.720Z,17.28
2017-08-10T08:26:23.941Z,17.22
2017-08-10T08:27:04.735Z,17.33
2017-08-10T08:27:45.068Z,17.39
2017-08-10T08:28:25.528Z,17.32
2017-08-10T08:29:06.161Z,17.38
2017-08-10T08:29:46.633Z,17.33
2017-08-10T08:30:27.358Z,17.32
2017-08-10T08:31:07.603Z,17.32
2017-08-10T08:31:48.344Z,17.38
2017-08-10T08:32:28.840Z,17.36
2017-08-10T08:33:09.323Z,17.4
2017-08-10T08:33:49.715Z,17.46
2017-08-10T08:34:30.426Z,17.54
2017-08-10T08:35:11.701Z,17.66
2017-08-10T08:35:52.054Z,17.71
2017-08-10T08:36:32.430Z,17.73
2017-08-10T08:37:12.857Z,17.74
2017-08-10T08:37:53.286Z,17.76
2017-08-10T08:38:33.871Z,17.8
2017-08-10T08:39:14.583Z,17.92
2017-08-10T08:39:54.766Z,17.96
2017-08-10T08:40:35.217Z,18.11
2017-08-10T08:41:15.562Z,18.1
2017-08-10T08:41:56.006Z,18.13
2017-08-10T08:42:36.478Z,18.23
2017-08-10T08:43:16.929Z,18.31
2017-08-10T08:43:57.350Z,18.25
2017-08-10T08:44:37.827Z,18.31
2017-08-10T08:45:18.221Z,18.29
2017-08-10T08:45:58.614Z,18.32
2017-08-10T08:46:39.044Z,18.38
2017-08-10T08:47:19.491Z,18.35
2017-08-10T08:47:59.947Z,18.36
2017-08-10T08:48:40.386Z,18.38
2017-08-10T08:49:20.900Z,18.35
2017-08-10T08:50:01.254Z,18.32
2017-08-10T08:50:41.857Z,18.34
2017-08-10T08:51:22.111Z,18.31
2017-08-10T08:52:02.524Z,18.29
2017-08-10T08:52:43.163Z,18.23
2017-08-10T08:53:23.688Z,18.32
2017-08-10T08:54:04.337Z,18.34
2017-08-10T08:54:44.918Z,18.32
2017-08-10T08:55:25.319Z,18.31
2017-08-10T08:56:05.793Z,18.31
2017-08-10T08:56:46.251Z,18.26
2017-08-10T08:57:26.682Z,18.29
2017-08-10T08:58:07.132Z,18.35
2017-08-10T08:58:47.654Z,18.38